Time;durP1;ratioP1;P1;durP2;ratioP2;P2;SDS_P1;SDS_P2;PMS_P1;PMS_P2;Temp;Humidity;BMP_temperature;BMP_pressure;BME280_temperature;BME280_humidity;BME280_pressure;Samples;Min_cycle;Max_cycle;Signal;HPM_P1;HPM_P2
2023/10/17 00:00:28;;;;;;;4.63;2.20;;;;;;;;;;5177727;27;20050;-71
2023/10/17 00:03:14;;;;;;;2.63;1.80;;;;;;;;;;5178822;27;20018;-73
2023/10/17 00:06:00;;;;;;;2.22;1.83;;;;;;;;;;5179039;27;20462;-73
2023/10/17 00:08:50;;;;;;;3.92;1.80;;;;;;;;;;5164534;27;20022;-74
2023/10/17 00:11:51;;;;;;;4.35;1.92;;;;;;;;;;5163751;27;20075;-73
2023/10/17 00:14:45;;;;;;;3.78;2.10;;;;;;;;;;5177358;27;20007;-74
2023/10/17 00:17:33;;;;;;;2.97;2.10;;;;;;;;;;5178930;27;20014;-71
2023/10/17 00:20:24;;;;;;;4.72;2.22;;;;;;;;;;5178183;27;20040;-71
2023/10/17 00:23:16;;;;;;;4.32;3.25;;;;;;;;;;5162650;27;20022;-72
2023/10/17 00:26:04;;;;;;;5.38;2.47;;;;;;;;;;5162314;27;20499;-71
2023/10/17 00:28:52;;;;;;;3.40;2.42;;;;;;;;;;5163602;27;20074;-71
2023/10/17 00:31:38;;;;;;;6.35;2.80;;;;;;;;;;5173830;27;20029;-72
2023/10/17 00:34:25;;;;;;;6.47;2.78;;;;;;;;;;5164907;27;20026;-71
2023/10/17 00:37:20;;;;;;;6.22;2.58;;;;;;;;;;5191038;27;20030;-70
2023/10/17 00:40:26;;;;;;;6.28;3.03;;;;;;;;;;5180312;27;20030;-71
2023/10/17 00:43:14;;;;;;;6.43;2.83;;;;;;;;;;5183232;27;20061;-71
2023/10/17 00:45:59;;;;;;;7.88;2.67;;;;;;;;;;5193214;27;20029;-71
2023/10/17 00:48:47;;;;;;;3.58;2.60;;;;;;;;;;5181910;27;20048;-70
2023/10/17 00:51:33;;;;;;;2.95;2.03;;;;;;;;;;5196060;27;20042;-70
2023/10/17 00:54:20;;;;;;;6.03;2.53;;;;;;;;;;5196906;27;20014;-70
2023/10/17 00:57:06;;;;;;;5.95;2.30;;;;;;;;;;5197806;27;20117;-71
2023/10/17 00:59:53;;;;;;;5.55;2.47;;;;;;;;;;5195186;27;20002;-72
2023/10/17 01:02:47;;;;;;;5.00;3.20;;;;;;;;;;5196456;27;20018;-71
2023/10/17 01:06:10;;;;;;;4.07;2.83;;;;;;;;;;5194414;27;20010;-71
2023/10/17 01:08:56;;;;;;;3.97;2.50;;;;;;;;;;5195515;27;20091;-71
2023/10/17 01:11:42;;;;;;;3.65;2.58;;;;;;;;;;5195741;27;20033;-72
2023/10/17 01:14:32;;;;;;;4.20;2.53;;;;;;;;;;5196040;27;20019;-71
2023/10/17 01:17:23;;;;;;;4.57;2.40;;;;;;;;;;5188750;27;20037;-72
2023/10/17 01:20:15;;;;;;;5.30;2.53;;;;;;;;;;5185320;27;20010;-71
2023/10/17 01:23:01;;;;;;;4.15;2.53;;;;;;;;;;5166677;27;20006;-71
2023/10/17 01:25:50;;;;;;;3.97;2.47;;;;;;;;;;5176971;27;20028;-70
2023/10/17 01:28:36;;;;;;;4.22;2.45;;;;;;;;;;5176534;27;20022;-72
2023/10/17 01:31:25;;;;;;;4.68;2.50;;;;;;;;;;5177995;27;20021;-71
2023/10/17 01:34:11;;;;;;;3.88;2.72;;;;;;;;;;5178538;27;20014;-73
2023/10/17 01:36:57;;;;;;;6.97;2.72;;;;;;;;;;5179820;27;20409;-71
2023/10/17 01:39:43;;;;;;;4.22;2.40;;;;;;;;;;5161787;27;20051;-72
2023/10/17 01:42:29;;;;;;;4.00;2.55;;;;;;;;;;5177481;27;20033;-71
2023/10/17 01:45:15;;;;;;;3.70;2.40;;;;;;;;;;5176807;27;20050;-71
2023/10/17 01:48:01;;;;;;;4.18;2.55;;;;;;;;;;5168969;27;20015;-69
2023/10/17 01:50:47;;;;;;;4.03;2.75;;;;;;;;;;5187319;27;20049;-73
2023/10/17 01:53:33;;;;;;;5.30;2.25;;;;;;;;;;5189698;27;20022;-71
2023/10/17 01:56:26;;;;;;;9.65;2.70;;;;;;;;;;5176736;27;20493;-71
2023/10/17 01:59:13;;;;;;;4.65;2.20;;;;;;;;;;5193428;27;20038;-73
2023/10/17 02:01:59;;;;;;;4.10;2.55;;;;;;;;;;5190588;27;20026;-71
2023/10/17 02:04:47;;;;;;;3.85;2.40;;;;;;;;;;5178954;27;20184;-70
2023/10/17 02:07:33;;;;;;;3.60;2.30;;;;;;;;;;5193822;27;20070;-73
2023/10/17 02:10:21;;;;;;;4.18;2.40;;;;;;;;;;5194441;27;20086;-71
2023/10/17 02:13:07;;;;;;;3.15;2.40;;;;;;;;;;5191599;27;20029;-70
2023/10/17 02:15:52;;;;;;;4.53;3.00;;;;;;;;;;5170355;27;20022;-71
2023/10/17 02:18:38;;;;;;;5.13;3.03;;;;;;;;;;5194464;27;20014;-71
2023/10/17 02:21:25;;;;;;;4.20;2.80;;;;;;;;;;5180977;27;20397;-71
2023/10/17 02:24:11;;;;;;;4.13;2.78;;;;;;;;;;5180970;27;20033;-70
2023/10/17 02:27:00;;;;;;;4.80;2.83;;;;;;;;;;5177797;27;20022;-71
2023/10/17 02:29:48;;;;;;;4.35;2.80;;;;;;;;;;5177369;27;20022;-70
2023/10/17 02:32:35;;;;;;;5.47;2.60;;;;;;;;;;5176995;27;20018;-70
2023/10/17 02:35:28;;;;;;;4.10;2.72;;;;;;;;;;5166067;27;20041;-70
2023/10/17 02:38:15;;;;;;;4.72;2.70;;;;;;;;;;5180508;27;20061;-70
2023/10/17 02:41:01;;;;;;;3.38;2.38;;;;;;;;;;5180697;27;20026;-71
2023/10/17 02:43:47;;;;;;;6.28;2.88;;;;;;;;;;5178201;27;20018;-71
2023/10/17 02:46:33;;;;;;;6.25;2.40;;;;;;;;;;5183381;27;20022;-71
2023/10/17 02:49:19;;;;;;;11.55;3.15;;;;;;;;;;5188956;27;20102;-70
2023/10/17 02:52:05;;;;;;;7.05;3.15;;;;;;;;;;5163977;27;20444;-71
2023/10/17 02:54:59;;;;;;;6.63;2.88;;;;;;;;;;5182441;27;20032;-74
2023/10/17 02:57:45;;;;;;;8.13;2.60;;;;;;;;;;5192463;27;20026;-71
2023/10/17 03:00:34;;;;;;;5.32;2.70;;;;;;;;;;5195224;27;20018;-71
2023/10/17 03:03:19;;;;;;;3.22;2.33;;;;;;;;;;5182027;27;20018;-72
2023/10/17 03:06:05;;;;;;;3.33;2.30;;;;;;;;;;5181899;27;20036;-72
2023/10/17 03:09:00;;;;;;;6.88;3.20;;;;;;;;;;5181229;27;20014;-71
2023/10/17 03:17:32;;;;;;;5.50;2.25;;;;;;;;;;5179113;27;20347;-71
2023/10/17 03:20:18;;;;;;;4.03;2.67;;;;;;;;;;5178707;27;20101;-71
2023/10/17 03:23:06;;;;;;;6.10;2.55;;;;;;;;;;5180306;27;20101;-71
2023/10/17 03:26:00;;;;;;;3.05;2.40;;;;;;;;;;5178453;27;20420;-71
2023/10/17 03:28:46;;;;;;;3.42;2.50;;;;;;;;;;5164568;27;20105;-71
2023/10/17 03:31:31;;;;;;;3.97;2.50;;;;;;;;;;5178436;27;20093;-71
2023/10/17 03:34:21;;;;;;;3.75;2.47;;;;;;;;;;5178897;27;20018;-71
2023/10/17 03:40:19;;;;;;;4.85;2.75;;;;;;;;;;5178976;27;20170;-72
2023/10/17 03:43:15;;;;;;;3.50;2.55;;;;;;;;;;5178220;27;20021;-72
2023/10/17 03:46:04;;;;;;;3.75;2.35;;;;;;;;;;5178035;27;20105;-71
2023/10/17 03:48:50;;;;;;;5.05;2.70;;;;;;;;;;5178843;27;20034;-72
2023/10/17 03:51:39;;;;;;;4.38;2.75;;;;;;;;;;5178445;27;20033;-71
2023/10/17 03:54:25;;;;;;;3.97;2.80;;;;;;;;;;5163529;27;20014;-71
2023/10/17 03:57:16;;;;;;;4.97;2.80;;;;;;;;;;5179011;27;20033;-71
2023/10/17 04:00:18;;;;;;;6.90;3.60;;;;;;;;;;5178094;27;20022;-71
2023/10/17 04:03:08;;;;;;;6.13;3.25;;;;;;;;;;5179057;27;20053;-71
2023/10/17 04:06:18;;;;;;;5.13;3.13;;;;;;;;;;5177498;27;20014;-71
2023/10/17 04:09:20;;;;;;;6.47;3.92;;;;;;;;;;5177060;27;20020;-71
2023/10/17 04:12:08;;;;;;;8.40;3.42;;;;;;;;;;5178612;27;20133;-72
2023/10/17 04:14:58;;;;;;;7.47;3.25;;;;;;;;;;5178623;27;20029;-71
2023/10/17 04:17:46;;;;;;;5.95;3.60;;;;;;;;;;5178711;27;20440;-70
2023/10/17 04:20:36;;;;;;;7.20;3.67;;;;;;;;;;5178206;27;20070;-71
2023/10/17 04:23:26;;;;;;;6.53;3.58;;;;;;;;;;5162765;27;20018;-71
2023/10/17 04:26:27;;;;;;;6.05;3.90;;;;;;;;;;5179039;27;20075;-69
2023/10/17 04:29:13;;;;;;;7.05;4.53;;;;;;;;;;5177867;27;20022;-70
2023/10/17 04:32:01;;;;;;;9.48;4.82;;;;;;;;;;5178803;27;20121;-68
2023/10/17 04:34:47;;;;;;;10.57;4.75;;;;;;;;;;5178396;27;20014;-68
2023/10/17 04:37:32;;;;;;;5.93;4.03;;;;;;;;;;5178461;27;20029;-70
2023/10/17 04:40:37;;;;;;;6.35;3.25;;;;;;;;;;5162044;27;20038;-69
2023/10/17 04:46:29;;;;;;;7.18;3.70;;;;;;;;;;5178280;27;20022;-69
2023/10/17 04:49:20;;;;;;;8.38;4.18;;;;;;;;;;5161963;27;20416;-69
2023/10/17 04:52:06;;;;;;;7.75;4.25;;;;;;;;;;5177077;27;20124;-69
2023/10/17 04:54:53;;;;;;;8.60;3.60;;;;;;;;;;5163622;27;20022;-69
2023/10/17 04:58:30;;;;;;;5.78;3.25;;;;;;;;;;5178304;27;20030;-69
2023/10/17 05:03:55;;;;;;;5.22;3.25;;;;;;;;;;5177545;27;20432;-68
2023/10/17 06:17:30;;;;;;;19.77;6.50;;;;;;;;;;5151468;27;20007;-69
2023/10/17 06:20:18;;;;;;;12.90;7.05;;;;;;;;;;5152051;27;20011;-68
2023/10/17 06:26:46;;;;;;;13.65;6.90;;;;;;;;;;5151184;27;20410;-68
2023/10/17 06:35:04;;;;;;;14.88;6.72;;;;;;;;;;5151915;27;20079;-70
2023/10/17 06:37:49;;;;;;;11.57;6.47;;;;;;;;;;5151311;27;20026;-69
2023/10/17 06:40:41;;;;;;;12.38;6.35;;;;;;;;;;5136995;27;20384;-70
2023/10/17 06:43:30;;;;;;;10.40;6.80;;;;;;;;;;5137480;27;20386;-68
2023/10/17 06:46:28;;;;;;;11.73;7.20;;;;;;;;;;5151305;27;20111;-69
2023/10/17 06:52:23;;;;;;;12.15;7.18;;;;;;;;;;5129094;27;20082;-69
2023/10/17 06:55:08;;;;;;;14.48;7.30;;;;;;;;;;5137582;27;20050;-70
2023/10/17 06:58:04;;;;;;;12.98;7.80;;;;;;;;;;5136338;27;20095;-68
2023/10/17 07:00:53;;;;;;;17.85;8.80;;;;;;;;;;5122665;27;20095;-69
2023/10/17 07:03:44;;;;;;;15.77;9.20;;;;;;;;;;5140362;27;20027;-69
2023/10/17 07:06:32;;;;;;;17.25;9.07;;;;;;;;;;5137110;27;20012;-68
2023/10/17 07:09:19;;;;;;;18.67;11.10;;;;;;;;;;5136970;27;20026;-69
2023/10/17 07:12:05;;;;;;;22.80;9.80;;;;;;;;;;5135883;27;20033;-69
2023/10/17 07:14:52;;;;;;;28.45;11.32;;;;;;;;;;5137339;27;20011;-70
2023/10/17 07:17:43;;;;;;;17.55;9.63;;;;;;;;;;5136091;27;20023;-69
2023/10/17 07:23:33;;;;;;;18.27;9.60;;;;;;;;;;5137093;27;20023;-69
2023/10/17 07:26:35;;;;;;;15.05;6.90;;;;;;;;;;5137443;27;20095;-68
2023/10/17 07:29:22;;;;;;;14.98;6.72;;;;;;;;;;5136364;27;20030;-69
2023/10/17 07:32:25;;;;;;;12.45;6.15;;;;;;;;;;5136177;27;20439;-69
2023/10/17 07:35:16;;;;;;;8.80;5.85;;;;;;;;;;5137598;27;20125;-69
2023/10/17 07:38:03;;;;;;;11.52;5.80;;;;;;;;;;5136068;27;20015;-69
2023/10/17 07:40:58;;;;;;;9.85;6.00;;;;;;;;;;5122016;27;20041;-69
2023/10/17 07:43:44;;;;;;;9.00;4.47;;;;;;;;;;5136224;27;20027;-69
2023/10/17 07:46:29;;;;;;;6.82;4.78;;;;;;;;;;5136357;27;20112;-69
2023/10/17 07:49:18;;;;;;;11.60;3.92;;;;;;;;;;5136589;27;20023;-69
2023/10/17 07:52:12;;;;;;;10.27;3.67;;;;;;;;;;5136309;27;20053;-68
2023/10/17 07:54:58;;;;;;;8.18;3.40;;;;;;;;;;5136181;27;20355;-69
2023/10/17 07:57:44;;;;;;;6.65;3.05;;;;;;;;;;5135712;27;20079;-70
2023/10/17 08:00:38;;;;;;;7.45;2.83;;;;;;;;;;5135632;27;20011;-68
2023/10/17 08:03:27;;;;;;;5.18;3.08;;;;;;;;;;5135319;27;20037;-68
2023/10/17 08:06:13;;;;;;;6.15;3.10;;;;;;;;;;5135559;27;20316;-69
2023/10/17 08:08:59;;;;;;;7.05;2.83;;;;;;;;;;5121268;27;20351;-70
2023/10/17 08:11:46;;;;;;;9.18;3.58;;;;;;;;;;5136381;27;20023;-68
2023/10/17 08:14:40;;;;;;;7.93;2.90;;;;;;;;;;5134419;27;20024;-70
2023/10/17 08:17:34;;;;;;;8.05;2.70;;;;;;;;;;5122454;27;20106;-69
2023/10/17 08:23:26;;;;;;;7.75;3.13;;;;;;;;;;5135510;27;20027;-70
2023/10/17 08:26:12;;;;;;;6.47;3.25;;;;;;;;;;5135623;27;20495;-69
2023/10/17 08:29:00;;;;;;;4.55;2.60;;;;;;;;;;5135068;27;20031;-68
2023/10/17 08:31:45;;;;;;;11.55;3.60;;;;;;;;;;5135020;27;20045;-77
2023/10/17 08:34:41;;;;;;;5.28;2.55;;;;;;;;;;5135719;27;20052;-76
2023/10/17 08:37:32;;;;;;;10.18;3.10;;;;;;;;;;5121625;27;20011;-76
2023/10/17 08:40:31;;;;;;;7.57;2.33;;;;;;;;;;5121343;27;20393;-75
2023/10/17 08:43:19;;;;;;;6.78;2.40;;;;;;;;;;5134962;27;20462;-73
2023/10/17 08:46:10;;;;;;;6.45;2.72;;;;;;;;;;5135271;27;20019;-70
2023/10/17 08:48:56;;;;;;;5.65;2.50;;;;;;;;;;5135677;27;20022;-70
2023/10/17 08:51:42;;;;;;;7.22;2.42;;;;;;;;;;5134346;27;20108;-72
2023/10/17 08:54:30;;;;;;;5.40;2.40;;;;;;;;;;5121221;27;20121;-71
2023/10/17 08:57:16;;;;;;;6.38;2.75;;;;;;;;;;5121138;27;20019;-73
2023/10/17 09:03:00;;;;;;;7.70;2.95;;;;;;;;;;5135442;27;20111;-76
2023/10/17 09:09:19;;;;;;;9.93;2.72;;;;;;;;;;5124508;27;20027;-74
2023/10/17 09:12:19;;;;;;;6.35;2.08;;;;;;;;;;5134960;27;20019;-75
2023/10/17 09:15:06;;;;;;;3.90;2.13;;;;;;;;;;5121007;27;20022;-74
2023/10/17 09:17:59;;;;;;;5.15;2.10;;;;;;;;;;5135636;27;20419;-75
2023/10/17 09:20:48;;;;;;;3.72;2.40;;;;;;;;;;5137008;27;20150;-74
2023/10/17 09:23:34;;;;;;;5.65;2.33;;;;;;;;;;5134736;27;20022;-76
2023/10/17 09:26:20;;;;;;;5.78;2.10;;;;;;;;;;5120545;27;20023;-76
2023/10/17 09:29:05;;;;;;;3.70;2.05;;;;;;;;;;5120285;27;20076;-74
2023/10/17 09:31:51;;;;;;;3.97;2.30;;;;;;;;;;5134336;27;20019;-76
2023/10/17 09:34:38;;;;;;;2.97;1.80;;;;;;;;;;5134977;27;20025;-76
2023/10/17 09:37:27;;;;;;;5.55;2.20;;;;;;;;;;5135073;27;20050;-73
2023/10/17 09:40:13;;;;;;;5.22;1.70;;;;;;;;;;5120375;28;20431;-76
2023/10/17 09:43:00;;;;;;;5.10;2.15;;;;;;;;;;5135511;27;20076;-75
2023/10/17 09:45:48;;;;;;;4.25;2.15;;;;;;;;;;5134806;27;20034;-74
2023/10/17 09:48:34;;;;;;;2.83;1.95;;;;;;;;;;5134672;27;20466;-74
2023/10/17 09:51:21;;;;;;;4.10;2.30;;;;;;;;;;5133704;28;20047;-75
2023/10/17 09:54:08;;;;;;;3.40;2.08;;;;;;;;;;5134429;28;20019;-74
2023/10/17 09:56:54;;;;;;;4.60;2.10;;;;;;;;;;5134810;28;20019;-74
2023/10/17 09:59:42;;;;;;;5.25;2.40;;;;;;;;;;5134555;28;20091;-74
2023/10/17 10:02:28;;;;;;;5.25;2.10;;;;;;;;;;5134955;28;20348;-74
2023/10/17 10:05:29;;;;;;;4.03;1.80;;;;;;;;;;5120852;28;20030;-76
2023/10/17 10:08:34;;;;;;;6.00;1.85;;;;;;;;;;5134875;28;20086;-74
2023/10/17 10:11:20;;;;;;;3.42;1.73;;;;;;;;;;5134302;28;20510;-75
2023/10/17 10:14:08;;;;;;;5.38;1.75;;;;;;;;;;5136027;28;20104;-74
2023/10/17 10:16:57;;;;;;;3.25;2.08;;;;;;;;;;5134811;28;20118;-75
2023/10/17 10:19:47;;;;;;;3.20;1.55;;;;;;;;;;5134295;28;20107;-75
2023/10/17 10:22:48;;;;;;;3.30;1.45;;;;;;;;;;5134355;28;20023;-75
2023/10/17 10:25:34;;;;;;;3.65;1.48;;;;;;;;;;5120286;28;20383;-76
2023/10/17 10:28:29;;;;;;;3.45;1.80;;;;;;;;;;5133646;28;20027;-73
2023/10/17 10:31:21;;;;;;;9.60;2.50;;;;;;;;;;5133578;28;20065;-74
2023/10/17 10:34:07;;;;;;;2.83;1.63;;;;;;;;;;5134228;28;20023;-74
2023/10/17 10:36:53;;;;;;;8.07;1.27;;;;;;;;;;5139048;27;20038;-75
2023/10/17 10:39:39;;;;;;;2.10;1.08;;;;;;;;;;5140153;27;20031;-74
2023/10/17 10:42:24;;;;;;;2.40;0.82;;;;;;;;;;5138536;27;20095;-74
2023/10/17 10:45:26;;;;;;;1.67;1.17;;;;;;;;;;5138623;27;20011;-74
2023/10/17 10:48:16;;;;;;;6.00;1.75;;;;;;;;;;5138304;27;20019;-74
2023/10/17 10:51:02;;;;;;;5.63;2.50;;;;;;;;;;5137417;27;20511;-73
2023/10/17 10:53:54;;;;;;;5.47;2.30;;;;;;;;;;5137742;27;20019;-71
2023/10/17 10:56:49;;;;;;;4.57;2.20;;;;;;;;;;5137348;27;20091;-73
2023/10/17 10:59:35;;;;;;;9.57;1.83;;;;;;;;;;5122276;27;20495;-75
2023/10/17 11:02:20;;;;;;;4.38;1.90;;;;;;;;;;5122618;27;20027;-75
2023/10/17 11:05:10;;;;;;;3.83;2.28;;;;;;;;;;5136331;27;20373;-75
2023/10/17 11:08:00;;;;;;;3.42;1.95;;;;;;;;;;5136639;27;20439;-74
2023/10/17 11:10:46;;;;;;;8.07;3.10;;;;;;;;;;5136696;27;20130;-75
2023/10/17 11:13:40;;;;;;;3.60;1.90;;;;;;;;;;5137514;27;20439;-71
2023/10/17 11:16:26;;;;;;;2.83;1.92;;;;;;;;;;5121766;27;20109;-72
2023/10/17 11:19:19;;;;;;;5.97;2.15;;;;;;;;;;5137078;27;20019;-72
2023/10/17 11:22:06;;;;;;;2.80;1.80;;;;;;;;;;5121294;27;20454;-73
2023/10/17 11:24:52;;;;;;;15.38;4.47;;;;;;;;;;5122643;27;20023;-72
2023/10/17 11:30:48;;;;;;;4.25;2.00;;;;;;;;;;5136847;27;20019;-71
2023/10/17 11:33:45;;;;;;;3.33;1.88;;;;;;;;;;5136221;27;20083;-71
2023/10/17 11:36:45;;;;;;;3.97;2.08;;;;;;;;;;5136593;27;20472;-71
2023/10/17 11:39:40;;;;;;;6.55;1.80;;;;;;;;;;5136231;27;20553;-71
2023/10/17 11:42:33;;;;;;;6.10;1.77;;;;;;;;;;5136408;27;20031;-71
2023/10/17 11:45:20;;;;;;;3.13;1.45;;;;;;;;;;5136807;27;20023;-70
2023/10/17 11:48:23;;;;;;;6.43;1.70;;;;;;;;;;5122404;27;20030;-71
2023/10/17 11:51:13;;;;;;;2.83;1.55;;;;;;;;;;5136446;27;20074;-72
2023/10/17 11:54:07;;;;;;;4.85;1.95;;;;;;;;;;5137237;27;20015;-71
2023/10/17 11:56:54;;;;;;;4.03;1.52;;;;;;;;;;5137104;27;20363;-72
2023/10/17 11:59:53;;;;;;;2.00;1.40;;;;;;;;;;5128021;27;20139;-71
2023/10/17 12:02:47;;;;;;;4.03;1.70;;;;;;;;;;5134895;27;20023;-70
2023/10/17 12:05:38;;;;;;;6.55;2.30;;;;;;;;;;5135460;27;20029;-69
2023/10/17 12:08:29;;;;;;;6.35;2.10;;;;;;;;;;5135945;27;20019;-70
2023/10/17 12:11:14;;;;;;;3.65;1.70;;;;;;;;;;5135161;27;20034;-71
2023/10/17 12:14:00;;;;;;;3.08;1.70;;;;;;;;;;5135895;27;20102;-73
2023/10/17 12:16:48;;;;;;;5.75;1.67;;;;;;;;;;5135610;27;20038;-71
2023/10/17 12:19:33;;;;;;;6.43;1.67;;;;;;;;;;5135328;27;20118;-71
2023/10/17 12:22:19;;;;;;;4.20;1.50;;;;;;;;;;5121680;27;20027;-73
2023/10/17 12:25:04;;;;;;;5.25;1.70;;;;;;;;;;5135781;27;20015;-72
2023/10/17 12:27:52;;;;;;;2.53;1.52;;;;;;;;;;5134970;27;20462;-69
2023/10/17 12:30:39;;;;;;;6.97;1.75;;;;;;;;;;5135977;27;20037;-67
2023/10/17 12:33:25;;;;;;;2.78;1.60;;;;;;;;;;5135419;27;20355;-72
2023/10/17 12:36:12;;;;;;;3.38;1.50;;;;;;;;;;5120005;27;20015;-72
2023/10/17 12:38:58;;;;;;;4.95;1.40;;;;;;;;;;5120646;27;20022;-71
2023/10/17 12:41:49;;;;;;;5.18;2.13;;;;;;;;;;5135858;27;20348;-72
2023/10/17 12:44:37;;;;;;;7.70;1.52;;;;;;;;;;5134745;27;20054;-72
2023/10/17 12:47:23;;;;;;;6.03;2.03;;;;;;;;;;5135341;27;20462;-72
2023/10/17 12:50:09;;;;;;;9.15;2.30;;;;;;;;;;5134915;27;20038;-72
2023/10/17 12:52:54;;;;;;;2.70;1.60;;;;;;;;;;5134886;27;20031;-72
2023/10/17 12:55:40;;;;;;;8.82;1.58;;;;;;;;;;5120221;27;20320;-72
2023/10/17 12:58:29;;;;;;;5.80;1.80;;;;;;;;;;5134714;27;20019;-74
2023/10/17 13:01:14;;;;;;;3.58;1.40;;;;;;;;;;5119399;27;20088;-73
2023/10/17 13:04:00;;;;;;;7.15;1.80;;;;;;;;;;5134311;27;20358;-74
2023/10/17 13:06:48;;;;;;;2.70;1.77;;;;;;;;;;5134482;27;20015;-74
2023/10/17 13:09:34;;;;;;;3.97;1.42;;;;;;;;;;5134102;27;20612;-73
2023/10/17 13:12:19;;;;;;;2.15;1.23;;;;;;;;;;5134777;27;20075;-74
2023/10/17 13:15:08;;;;;;;5.03;1.40;;;;;;;;;;5134333;27;20007;-74
2023/10/17 13:17:55;;;;;;;3.13;1.60;;;;;;;;;;5118968;27;20083;-73
2023/10/17 13:20:48;;;;;;;6.20;1.83;;;;;;;;;;5119635;27;20439;-73
2023/10/17 13:23:34;;;;;;;4.32;1.60;;;;;;;;;;5118843;27;20073;-74
2023/10/17 13:26:19;;;;;;;2.75;1.27;;;;;;;;;;5134250;27;20015;-71
2023/10/17 13:29:05;;;;;;;9.98;1.50;;;;;;;;;;5134462;27;20027;-72
2023/10/17 13:31:51;;;;;;;3.65;1.65;;;;;;;;;;5134439;27;20113;-71
2023/10/17 13:34:37;;;;;;;4.75;1.95;;;;;;;;;;5133989;27;20022;-72
2023/10/17 13:37:22;;;;;;;5.80;2.60;;;;;;;;;;5133809;27;20023;-72
2023/10/17 13:40:09;;;;;;;3.13;1.75;;;;;;;;;;5133885;27;20465;-73
2023/10/17 13:42:54;;;;;;;6.70;1.73;;;;;;;;;;5134237;27;20145;-72
2023/10/17 13:45:41;;;;;;;8.02;1.92;;;;;;;;;;5134596;27;20443;-72
2023/10/17 13:48:28;;;;;;;3.63;1.65;;;;;;;;;;5135718;27;20106;-73
2023/10/17 13:51:14;;;;;;;3.15;1.63;;;;;;;;;;5133852;28;20054;-72
2023/10/17 13:54:00;;;;;;;3.60;2.00;;;;;;;;;;5119364;28;20030;-72
2023/10/17 13:56:46;;;;;;;4.53;1.92;;;;;;;;;;5120196;28;20019;-72
2023/10/17 13:59:38;;;;;;;6.07;1.95;;;;;;;;;;5120577;28;20047;-69
2023/10/17 14:02:24;;;;;;;4.30;1.98;;;;;;;;;;5120314;28;20024;-71
2023/10/17 14:05:09;;;;;;;3.70;2.15;;;;;;;;;;5136629;28;20076;-71
2023/10/17 14:07:55;;;;;;;5.35;1.92;;;;;;;;;;5134969;28;20026;-71
2023/10/17 14:10:44;;;;;;;5.32;2.10;;;;;;;;;;5133423;28;20076;-71
2023/10/17 14:13:29;;;;;;;2.95;1.70;;;;;;;;;;5120887;27;20404;-72
2023/10/17 14:16:16;;;;;;;6.07;2.30;;;;;;;;;;5139672;27;20023;-72
2023/10/17 14:19:12;;;;;;;9.20;2.17;;;;;;;;;;5123134;27;20431;-71
2023/10/17 14:22:05;;;;;;;7.95;1.70;;;;;;;;;;5137366;27;20054;-71
2023/10/17 14:27:39;;;;;;;5.15;2.10;;;;;;;;;;5138251;27;20015;-72
2023/10/17 14:30:25;;;;;;;5.28;2.55;;;;;;;;;;5123080;27;20054;-71
2023/10/17 14:33:10;;;;;;;11.18;2.42;;;;;;;;;;5138559;27;20034;-71
2023/10/17 14:36:00;;;;;;;3.53;2.03;;;;;;;;;;5137496;27;20015;-72
2023/10/17 14:38:45;;;;;;;5.43;2.00;;;;;;;;;;5138216;27;20015;-71
2023/10/17 14:41:31;;;;;;;2.95;1.90;;;;;;;;;;5138436;27;20450;-70
2023/10/17 14:44:16;;;;;;;3.35;1.73;;;;;;;;;;5137285;27;20031;-71
2023/10/17 14:47:02;;;;;;;4.80;2.00;;;;;;;;;;5123120;27;20027;-71
2023/10/17 14:49:48;;;;;;;2.70;1.80;;;;;;;;;;5137527;27;20047;-73
2023/10/17 14:52:34;;;;;;;3.83;1.90;;;;;;;;;;5122807;27;20039;-71
2023/10/17 14:55:26;;;;;;;4.25;1.73;;;;;;;;;;5123366;27;20050;-71
2023/10/17 14:58:12;;;;;;;6.60;1.95;;;;;;;;;;5137043;27;20129;-71
2023/10/17 15:00:57;;;;;;;3.25;1.67;;;;;;;;;;5137523;27;20111;-71
2023/10/17 15:03:49;;;;;;;6.03;1.83;;;;;;;;;;5137620;27;20034;-71
2023/10/17 15:06:36;;;;;;;7.05;2.05;;;;;;;;;;5123009;27;20080;-70
2023/10/17 15:09:22;;;;;;;5.97;2.25;;;;;;;;;;5136776;27;20189;-71
2023/10/17 15:12:08;;;;;;;3.85;1.90;;;;;;;;;;5122980;27;20026;-71
2023/10/17 15:14:55;;;;;;;4.63;2.00;;;;;;;;;;5136635;27;20026;-71
2023/10/17 15:17:41;;;;;;;3.17;1.85;;;;;;;;;;5137016;27;20026;-72
2023/10/17 15:20:28;;;;;;;4.07;2.20;;;;;;;;;;5136975;27;20021;-71
2023/10/17 15:23:14;;;;;;;5.25;2.17;;;;;;;;;;5136540;27;20030;-71
2023/10/17 15:26:00;;;;;;;6.57;2.58;;;;;;;;;;5122975;27;20074;-73
2023/10/17 15:28:48;;;;;;;6.45;2.75;;;;;;;;;;5122978;27;20027;-71
2023/10/17 15:31:34;;;;;;;5.65;2.78;;;;;;;;;;5122973;27;20498;-71
2023/10/17 15:34:21;;;;;;;5.80;3.10;;;;;;;;;;5122984;27;20080;-71
2023/10/17 15:37:06;;;;;;;8.40;3.08;;;;;;;;;;5137114;27;20050;-71
2023/10/17 15:39:53;;;;;;;6.93;3.38;;;;;;;;;;5137168;27;20101;-71
2023/10/17 15:42:39;;;;;;;6.32;3.42;;;;;;;;;;5137872;27;20041;-70
2023/10/17 15:45:24;;;;;;;5.88;2.80;;;;;;;;;;5122846;27;20091;-70
2023/10/17 15:48:10;;;;;;;7.25;3.30;;;;;;;;;;5136811;27;20031;-71
2023/10/17 15:50:56;;;;;;;8.52;3.58;;;;;;;;;;5136678;27;20459;-71
2023/10/17 15:53:42;;;;;;;7.22;3.65;;;;;;;;;;5136876;27;20019;-71
2023/10/17 15:56:28;;;;;;;7.05;3.97;;;;;;;;;;5122970;27;20323;-73
2023/10/17 15:59:15;;;;;;;9.20;4.40;;;;;;;;;;5136459;27;20019;-74
2023/10/17 16:02:00;;;;;;;9.50;4.70;;;;;;;;;;5136669;27;20043;-72
2023/10/17 16:04:48;;;;;;;8.20;4.35;;;;;;;;;;5118674;27;20112;-71
2023/10/17 16:07:33;;;;;;;8.77;4.40;;;;;;;;;;5136042;27;20328;-73
2023/10/17 16:10:19;;;;;;;7.97;4.57;;;;;;;;;;5136069;27;20111;-72
2023/10/17 16:13:07;;;;;;;11.40;4.72;;;;;;;;;;5135830;27;20027;-74
2023/10/17 16:15:58;;;;;;;8.50;4.78;;;;;;;;;;5135694;27;20439;-73
2023/10/17 16:18:43;;;;;;;9.40;4.40;;;;;;;;;;5121121;27;20430;-69
2023/10/17 16:21:29;;;;;;;10.70;4.75;;;;;;;;;;5135267;27;20042;-70
2023/10/17 16:24:16;;;;;;;8.80;4.40;;;;;;;;;;5115285;28;20024;-69
2023/10/17 16:27:01;;;;;;;8.48;4.53;;;;;;;;;;5114855;28;20036;-68
2023/10/17 16:29:47;;;;;;;7.60;4.30;;;;;;;;;;5115619;28;20020;-72
2023/10/17 16:32:33;;;;;;;8.85;4.40;;;;;;;;;;5115374;28;20407;-73
2023/10/17 16:35:18;;;;;;;11.93;5.22;;;;;;;;;;5114343;28;20016;-74
2023/10/17 16:38:09;;;;;;;8.05;4.50;;;;;;;;;;5115771;28;20076;-73
2023/10/17 16:40:55;;;;;;;10.20;4.93;;;;;;;;;;5115693;28;20022;-72
2023/10/17 16:43:41;;;;;;;9.57;4.70;;;;;;;;;;5115516;28;20019;-72
2023/10/17 16:46:27;;;;;;;8.75;4.72;;;;;;;;;;5114485;28;20355;-72
2023/10/17 16:49:14;;;;;;;9.50;5.15;;;;;;;;;;5114798;28;20062;-74
2023/10/17 16:52:03;;;;;;;13.18;5.13;;;;;;;;;;5094731;28;20048;-72
2023/10/17 16:54:49;;;;;;;11.13;5.72;;;;;;;;;;5094559;28;20028;-72
2023/10/17 16:57:34;;;;;;;10.15;5.80;;;;;;;;;;5094712;28;20073;-74
2023/10/17 17:00:20;;;;;;;8.73;5.30;;;;;;;;;;5096525;28;20020;-74
2023/10/17 17:03:06;;;;;;;8.23;4.93;;;;;;;;;;5095396;28;20020;-74
2023/10/17 17:05:52;;;;;;;10.77;5.38;;;;;;;;;;5095802;28;20395;-74
2023/10/17 17:08:37;;;;;;;10.38;4.68;;;;;;;;;;5094307;28;20084;-75
2023/10/17 17:11:25;;;;;;;9.65;4.70;;;;;;;;;;5079529;28;20113;-73
2023/10/17 17:14:11;;;;;;;7.22;4.55;;;;;;;;;;5097751;28;20048;-74
2023/10/17 17:16:57;;;;;;;9.00;4.60;;;;;;;;;;5098834;28;20028;-73
2023/10/17 17:19:42;;;;;;;5.50;3.83;;;;;;;;;;5107102;28;20028;-69
2023/10/17 17:22:28;;;;;;;9.68;5.10;;;;;;;;;;5096406;28;20034;-68
2023/10/17 17:25:14;;;;;;;5.95;3.75;;;;;;;;;;5100220;28;20024;-69
2023/10/17 17:28:00;;;;;;;6.53;3.47;;;;;;;;;;5115349;28;20359;-69
2023/10/17 17:30:46;;;;;;;7.45;3.97;;;;;;;;;;5114928;28;20184;-69
2023/10/17 17:33:31;;;;;;;8.38;3.88;;;;;;;;;;5114996;28;20039;-70
2023/10/17 17:36:18;;;;;;;8.95;2.92;;;;;;;;;;5116405;28;20324;-70
2023/10/17 17:39:06;;;;;;;33.95;15.50;;;;;;;;;;5123505;28;20459;-70
2023/10/17 17:41:52;;;;;;;28.35;12.70;;;;;;;;;;5114936;28;20090;-72
2023/10/17 17:44:38;;;;;;;11.25;5.43;;;;;;;;;;5111559;28;20046;-73
2023/10/17 17:47:24;;;;;;;11.95;5.47;;;;;;;;;;5134971;28;20024;-72
2023/10/17 17:50:14;;;;;;;5.45;3.20;;;;;;;;;;5121166;28;20031;-72
2023/10/17 17:52:59;;;;;;;5.85;2.85;;;;;;;;;;5121589;28;20028;-73
2023/10/17 17:55:49;;;;;;;6.78;2.80;;;;;;;;;;5134345;28;20038;-70
2023/10/17 17:58:34;;;;;;;7.88;4.28;;;;;;;;;;5119657;28;20118;-68
2023/10/17 18:01:20;;;;;;;6.57;3.20;;;;;;;;;;5117986;28;20011;-72
2023/10/17 18:04:06;;;;;;;4.95;2.72;;;;;;;;;;5132653;28;20050;-70
2023/10/17 18:06:57;;;;;;;6.20;2.67;;;;;;;;;;5131776;28;20012;-75
2023/10/17 18:09:43;;;;;;;7.65;2.70;;;;;;;;;;5136566;28;20019;-73
2023/10/17 18:12:30;;;;;;;9.05;3.13;;;;;;;;;;5131489;28;20011;-71
2023/10/17 18:15:16;;;;;;;6.40;2.55;;;;;;;;;;5126225;28;20012;-71
2023/10/17 18:18:03;;;;;;;6.20;2.90;;;;;;;;;;5102434;28;20031;-69
2023/10/17 18:20:58;;;;;;;5.25;2.90;;;;;;;;;;5114771;28;20019;-72
2023/10/17 18:23:44;;;;;;;5.45;2.92;;;;;;;;;;5113566;28;20078;-71
2023/10/17 18:26:30;;;;;;;4.15;2.70;;;;;;;;;;5119464;28;20336;-69
2023/10/17 18:29:20;;;;;;;4.47;2.97;;;;;;;;;;5115969;28;20092;-72
2023/10/17 18:32:05;;;;;;;6.90;3.10;;;;;;;;;;5117752;28;20084;-74
2023/10/17 18:34:51;;;;;;;6.63;3.22;;;;;;;;;;5119232;28;20019;-70
2023/10/17 18:37:41;;;;;;;5.28;2.88;;;;;;;;;;5118026;28;20016;-71
2023/10/17 18:40:29;;;;;;;7.65;2.85;;;;;;;;;;5119245;28;20054;-74
2023/10/17 18:43:15;;;;;;;7.45;3.97;;;;;;;;;;5118857;28;20028;-71